Time;durP1;ratioP1;P1;durP2;ratioP2;P2;SDS_P1;SDS_P2;PMS_P1;PMS_P2;Temp;Humidity;BMP_temperature;BMP_pressure;BME280_temperature;BME280_humidity;BME280_pressure;Samples;Min_cycle;Max_cycle;Signal;HPM_P1;HPM_P2
2022/06/02 00:01:26;;;;;;;5.60;4.93;;;;;;;7.74;90.22;98780.28;4189397;28;20087;-73
2022/06/02 00:03:37;;;;;;;5.55;4.97;;;;;;;7.68;91.28;98784.44;4189209;28;20042;-73
2022/06/02 00:05:59;;;;;;;5.20;4.70;;;;;;;7.52;92.30;98792.66;4195312;28;20062;-73
2022/06/02 00:08:02;;;;;;;5.68;5.07;;;;;;;7.41;92.11;98794.31;4188434;28;20310;-73
2022/06/02 00:10:09;;;;;;;7.18;5.22;;;;;;;7.32;93.38;98794.44;4188325;28;20067;-73
2022/06/02 00:12:28;;;;;;;5.43;4.93;;;;;;;7.30;92.41;98791.25;4193250;27;20047;-73
2022/06/02 00:14:45;;;;;;;6.43;5.28;;;;;;;7.16;96.77;98788.88;4204584;27;20129;-73
2022/06/02 00:16:55;;;;;;;5.47;4.97;;;;;;;7.12;94.47;98793.47;4188998;28;20370;-73
2022/06/02 00:18:59;;;;;;;6.30;4.97;;;;;;;6.99;95.36;98792.69;4188083;28;20056;-73
2022/06/02 00:21:17;;;;;;;7.32;5.35;;;;;;;6.90;96.50;98797.53;4189195;28;20503;-72
2022/06/02 00:23:39;;;;;;;5.82;5.03;;;;;;;6.85;96.32;98794.19;4196829;27;20369;-72
2022/06/02 00:25:52;;;;;;;7.43;5.05;;;;;;;6.89;95.40;98792.38;4189958;28;20048;-73
2022/06/02 00:27:58;;;;;;;;;;;;;;;6.86;95.78;98796.59;4188610;28;20137;-72
2022/06/02 00:30:20;;;;;;;5.05;4.35;;;;;;;6.85;94.85;98802.44;4194229;28;19927;-73
2022/06/02 00:32:31;;;;;;;5.25;4.75;;;;;;;6.83;94.52;98805.56;4188317;28;20075;-73
2022/06/02 00:34:36;;;;;;;5.40;4.90;;;;;;;6.74;96.56;98799.38;4188908;28;20456;-73
2022/06/02 00:37:25;;;;;;;5.63;4.80;;;;;;;6.72;96.41;98794.22;4191503;28;20043;-73
2022/06/02 00:39:29;;;;;;;5.68;5.07;;;;;;;6.68;96.54;98795.25;4193520;28;20437;-72
2022/06/02 00:41:46;;;;;;;7.72;5.00;;;;;;;6.67;96.14;98801.88;4203190;27;20537;-72
2022/06/02 00:43:54;;;;;;;4.85;4.10;;;;;;;6.68;94.92;98798.00;4203290;27;20581;-73
2022/06/02 00:46:10;;;;;;;5.10;4.45;;;;;;;6.71;93.67;98800.88;4188198;28;20105;-72
2022/06/02 00:48:16;;;;;;;5.78;5.03;;;;;;;6.72;92.69;98796.16;4187964;28;20040;-73
2022/06/02 00:50:35;;;;;;;5.72;4.10;;;;;;;6.71;94.03;98803.63;4187964;28;20036;-72
2022/06/02 00:52:54;;;;;;;7.15;4.93;;;;;;;6.65;94.18;98804.19;4194663;28;20032;-72
2022/06/02 00:57:52;;;;;;;6.70;4.32;;;;;;;6.59;91.47;98802.81;4188134;28;20047;-72
2022/06/02 01:00:17;;;;;;;7.47;4.82;;;;;;;6.55;92.87;98810.16;4199576;28;20118;-72
2022/06/02 01:02:17;;;;;;;5.22;4.40;;;;;;;6.54;92.69;98814.84;4203426;28;20058;-73
2022/06/02 01:04:18;;;;;;;6.28;4.57;;;;;;;6.52;92.74;98805.31;4195788;28;20118;-72
2022/06/02 01:06:18;;;;;;;6.40;4.53;;;;;;;6.51;93.33;98809.22;4186648;28;20027;-73
2022/06/02 01:08:26;;;;;;;6.18;4.63;;;;;;;6.45;95.00;98814.13;4187818;28;20444;-72
2022/06/02 01:10:42;;;;;;;6.57;5.00;;;;;;;6.40;96.30;98823.41;4188115;28;20028;-72
2022/06/02 01:13:12;;;;;;;5.95;5.35;;;;;;;6.28;97.52;98828.88;4192547;28;20067;-72
2022/06/02 01:15:25;;;;;;;5.57;5.07;;;;;;;6.18;100.00;98826.59;4194967;27;20048;-72
2022/06/02 01:17:40;;;;;;;;;;;;;;;6.10;100.00;98836.53;4188001;28;20434;-72
2022/06/02 01:19:52;;;;;;;6.30;4.65;;;;;;;6.05;100.00;98835.94;4193734;28;19922;-72
2022/06/02 01:22:17;;;;;;;5.20;4.50;;;;;;;6.01;100.00;98840.50;4194095;27;20230;-72
2022/06/02 01:24:17;;;;;;;6.13;4.75;;;;;;;6.00;100.00;98834.22;4187650;28;20041;-72
2022/06/02 01:26:36;;;;;;;5.57;4.97;;;;;;;5.87;100.00;98836.06;4187979;28;20062;-72
2022/06/02 01:28:59;;;;;;;5.70;4.90;;;;;;;5.77;100.00;98836.50;4187437;28;20036;-72
2022/06/02 01:31:19;;;;;;;5.85;4.85;;;;;;;5.71;100.00;98840.63;4187673;28;20457;-72
2022/06/02 01:33:45;;;;;;;5.85;4.90;;;;;;;5.64;100.00;98843.91;4184544;28;20047;-72
2022/06/02 01:35:49;;;;;;;6.57;4.78;;;;;;;5.57;100.00;98843.63;4187140;28;20472;-72
2022/06/02 01:37:55;;;;;;;5.57;4.57;;;;;;;5.53;100.00;98839.94;4187479;28;20055;-72
2022/06/02 01:40:15;;;;;;;7.40;4.95;;;;;;;5.53;100.00;98841.88;4187533;28;20436;-72
2022/06/02 01:42:27;;;;;;;5.95;5.03;;;;;;;5.52;100.00;98848.50;4187270;28;20075;-72
2022/06/02 01:44:56;;;;;;;5.60;4.63;;;;;;;5.49;100.00;98855.47;4187661;28;20064;-72
2022/06/02 01:47:12;;;;;;;5.80;4.72;;;;;;;5.46;100.00;98847.94;4187677;28;20053;-72
2022/06/02 01:49:24;;;;;;;5.10;4.60;;;;;;;5.49;100.00;98858.22;4186519;28;20435;-72
2022/06/02 01:51:51;;;;;;;5.07;4.47;;;;;;;5.45;100.00;98851.78;4186926;28;20098;-72
2022/06/02 01:54:26;;;;;;;4.90;4.22;;;;;;;5.48;100.00;98845.66;4187448;28;20408;-72
2022/06/02 01:56:45;;;;;;;5.70;4.18;;;;;;;5.42;98.97;98852.47;4187209;28;20054;-72
2022/06/02 01:59:15;;;;;;;5.68;4.47;;;;;;;5.41;97.97;98853.59;4188726;28;20413;-72
2022/06/02 02:01:41;;;;;;;5.38;3.65;;;;;;;5.41;95.03;98850.06;4187149;28;20063;-72
2022/06/02 02:04:10;;;;;;;5.45;4.38;;;;;;;5.35;96.06;98853.00;4186877;28;20044;-72
2022/06/02 02:06:41;;;;;;;9.02;5.03;;;;;;;5.32;96.19;98850.94;4186822;28;20126;-72
2022/06/02 02:09:01;;;;;;;5.10;4.57;;;;;;;5.29;95.26;98850.78;4182058;28;20964;-72
2022/06/02 02:11:20;;;;;;;5.30;4.28;;;;;;;5.30;95.49;98849.66;4191121;27;20535;-72
2022/06/02 02:13:55;;;;;;;5.07;4.07;;;;;;;5.32;95.57;98859.16;4186426;28;20740;-72
2022/06/02 02:16:01;;;;;;;4.43;3.85;;;;;;;5.32;94.29;98859.16;4185598;28;20047;-72
2022/06/02 02:18:17;;;;;;;4.30;3.40;;;;;;;5.31;93.75;98856.75;4187708;28;20056;-73
2022/06/02 02:20:30;;;;;;;6.88;4.07;;;;;;;5.31;95.07;98856.75;4185694;28;20064;-72
2022/06/02 02:22:50;;;;;;;4.82;4.32;;;;;;;5.27;95.12;98853.06;4188709;27;20195;-72
2022/06/02 02:25:09;;;;;;;5.20;3.78;;;;;;;5.17;94.08;98858.94;4201227;28;20058;-72
2022/06/02 02:27:15;;;;;;;4.30;3.90;;;;;;;5.12;94.14;98859.13;4183397;28;20382;-72
2022/06/02 02:29:51;;;;;;;4.55;4.05;;;;;;;5.04;94.45;98858.84;4186402;28;20048;-72
2022/06/02 02:32:26;;;;;;;4.50;4.07;;;;;;;5.00;93.68;98862.59;4187311;28;20052;-72
2022/06/02 02:34:54;;;;;;;5.40;3.97;;;;;;;4.97;93.78;98852.31;4181915;28;20573;-72
2022/06/02 02:37:05;;;;;;;4.72;3.83;;;;;;;4.93;95.21;98863.13;4191407;28;20109;-72
2022/06/02 02:39:35;;;;;;;4.68;4.22;;;;;;;4.93;94.64;98867.81;4192400;28;20052;-72
2022/06/02 02:41:35;;;;;;;7.05;4.10;;;;;;;4.86;94.57;98857.34;4192133;28;20047;-72
2022/06/02 02:43:56;;;;;;;4.50;4.10;;;;;;;4.84;95.93;98870.59;4190109;28;20091;-73
2022/06/02 02:46:22;;;;;;;5.32;4.00;;;;;;;4.86;94.86;98868.31;4186674;28;20054;-73
2022/06/02 02:48:57;;;;;;;5.30;3.95;;;;;;;4.76;95.43;98868.69;4187639;28;20047;-72
2022/06/02 02:51:11;;;;;;;6.97;4.32;;;;;;;4.67;94.63;98873.41;4186425;28;20040;-72
2022/06/02 02:53:20;;;;;;;5.90;4.50;;;;;;;4.62;96.99;98873.59;4189273;28;20351;-72
2022/06/02 02:55:27;;;;;;;5.75;4.65;;;;;;;4.57;97.05;98865.56;4185926;28;20078;-73
2022/06/02 02:57:35;;;;;;;4.57;4.03;;;;;;;4.50;96.84;98880.56;4188312;28;20658;-72
2022/06/02 02:59:51;;;;;;;5.53;4.28;;;;;;;4.41;97.23;98873.53;4185511;28;20041;-72
2022/06/02 03:02:05;;;;;;;7.15;4.47;;;;;;;4.43;98.60;98882.22;4185835;28;20052;-72
2022/06/02 03:04:29;;;;;;;5.32;4.40;;;;;;;4.35;97.86;98878.38;4185453;28;20508;-72
2022/06/02 03:06:36;;;;;;;7.22;4.55;;;;;;;4.28;100.00;98882.75;4184731;28;20037;-72
2022/06/02 03:08:48;;;;;;;6.35;5.00;;;;;;;4.25;100.00;98883.41;4184203;28;20490;-72
2022/06/02 03:10:55;;;;;;;8.83;5.77;;;;;;;4.18;100.00;98887.44;4186044;28;20380;-73
2022/06/02 03:13:22;;;;;;;6.07;4.95;;;;;;;4.17;100.00;98893.25;4186047;28;20093;-72
2022/06/02 03:15:42;;;;;;;6.28;4.63;;;;;;;4.17;100.00;98894.03;4190105;28;20044;-72
2022/06/02 03:17:42;;;;;;;6.50;4.68;;;;;;;4.19;100.00;98899.19;4196282;28;20432;-72
2022/06/02 03:19:55;;;;;;;8.27;4.93;;;;;;;4.22;100.00;98901.31;4200369;27;20044;-72
2022/06/02 03:22:17;;;;;;;9.82;5.15;;;;;;;4.22;100.00;98904.84;4194814;28;20047;-72
2022/06/02 03:24:36;;;;;;;7.88;4.63;;;;;;;4.26;99.90;98907.72;4195398;28;20396;-73
2022/06/02 03:26:36;;;;;;;5.75;4.68;;;;;;;4.25;100.00;98916.28;4184090;28;20048;-72
2022/06/02 03:28:49;;;;;;;5.15;4.65;;;;;;;4.23;100.00;98920.16;4181485;28;20052;-72
2022/06/02 03:30:52;;;;;;;;;;;;;;;4.25;100.00;98916.28;4194014;28;20036;-71
2022/06/02 03:33:05;;;;;;;5.43;4.45;;;;;;;4.27;100.00;98924.97;4189772;28;20039;-72
2022/06/02 03:35:40;;;;;;;5.97;4.43;;;;;;;4.27;100.00;98924.97;4195293;28;20043;-71
2022/06/02 03:38:02;;;;;;;7.80;4.45;;;;;;;4.34;100.00;98930.75;4190097;28;20127;-72
2022/06/02 03:40:27;;;;;;;4.45;3.80;;;;;;;4.45;99.41;98934.75;4195145;28;20060;-72
2022/06/02 03:42:52;;;;;;;6.55;4.38;;;;;;;4.54;98.14;98930.03;4187808;28;20377;-72
2022/06/02 03:44:55;;;;;;;4.55;4.03;;;;;;;4.57;97.24;98939.56;4192726;28;20544;-72
2022/06/02 03:47:37;;;;;;;6.88;4.35;;;;;;;4.62;95.41;98942.09;4191531;28;20052;-72
2022/06/02 03:50:01;;;;;;;7.22;4.18;;;;;;;4.74;94.54;98940.31;4180606;28;20057;-72
2022/06/02 03:52:32;;;;;;;4.65;4.07;;;;;;;4.76;93.51;98945.44;4191115;27;20058;-72
2022/06/02 03:54:51;;;;;;;8.13;4.22;;;;;;;4.84;93.88;98946.56;4194258;28;20129;-72
2022/06/02 03:56:59;;;;;;;4.38;3.85;;;;;;;5.00;91.95;98953.91;4189477;28;20147;-72
2022/06/02 03:59:11;;;;;;;6.05;4.82;;;;;;;5.00;91.95;98959.38;4188469;28;20464;-72
2022/06/02 04:01:21;;;;;;;4.57;4.17;;;;;;;4.98;91.91;98958.91;4188993;28;20051;-72
2022/06/02 04:03:59;;;;;;;4.93;4.35;;;;;;;4.95;92.19;98964.25;4202283;27;20321;-72
2022/06/02 04:06:02;;;;;;;5.60;4.03;;;;;;;5.03;91.19;98966.16;4197033;27;20047;-72
2022/06/02 04:08:35;;;;;;;7.72;5.07;;;;;;;5.00;91.71;98967.63;4191064;28;20049;-72
2022/06/02 04:11:12;;;;;;;5.13;4.22;;;;;;;4.96;91.83;98971.34;4188776;28;20094;-72
2022/06/02 04:13:40;;;;;;;4.93;4.10;;;;;;;4.91;92.37;98969.59;4203329;27;20531;-72
2022/06/02 04:16:17;;;;;;;10.07;5.07;;;;;;;4.91;94.06;98977.00;4191806;28;20044;-72
2022/06/02 04:18:58;;;;;;;8.50;4.10;;;;;;;4.93;92.37;98975.53;4188597;28;20114;-72
2022/06/02 04:21:33;;;;;;;6.85;5.30;;;;;;;4.97;94.30;98984.75;4184733;28;20392;-72
2022/06/02 04:23:59;;;;;;;6.60;4.82;;;;;;;5.11;94.31;98986.44;4188016;28;20794;-72
2022/06/02 04:26:31;;;;;;;7.40;4.35;;;;;;;5.22;92.42;98993.19;4188347;28;20068;-72
2022/06/02 04:28:45;;;;;;;7.07;4.60;;;;;;;5.33;92.28;98995.22;4186104;28;20380;-72
2022/06/02 04:31:00;;;;;;;13.27;5.47;;;;;;;5.40;93.69;98991.16;4190548;28;20075;-72
2022/06/02 04:33:27;;;;;;;6.45;4.32;;;;;;;5.50;92.60;98990.78;4194959;28;20050;-72
2022/06/02 04:35:42;;;;;;;6.05;4.63;;;;;;;5.61;93.00;98992.78;4182879;28;20058;-72
2022/06/02 04:38:12;;;;;;;12.70;8.15;;;;;;;5.75;94.04;99002.72;4179116;28;20190;-72
2022/06/02 04:40:36;;;;;;;8.68;6.72;;;;;;;5.93;95.64;98996.00;4186123;28;20123;-72
2022/06/02 04:42:45;;;;;;;;;;;;;;;6.04;94.03;98994.47;4187257;28;20051;-72
2022/06/02 04:45:05;;;;;;;8.40;6.50;;;;;;;6.17;93.42;99004.38;4187796;27;20430;-72
2022/06/02 04:47:34;;;;;;;10.30;7.07;;;;;;;6.35;95.62;98995.97;4178199;28;20044;-72
2022/06/02 04:49:47;;;;;;;9.40;6.80;;;;;;;6.45;96.20;98990.03;4133171;28;20473;-72
2022/06/02 04:51:58;;;;;;;8.32;7.18;;;;;;;6.58;96.15;98991.72;4217129;27;20059;-73
2022/06/02 04:54:28;;;;;;;8.25;6.32;;;;;;;6.71;94.80;98985.13;4187657;28;20047;-72
2022/06/02 04:56:38;;;;;;;7.40;5.95;;;;;;;6.86;94.59;98991.06;4189815;28;20426;-72
2022/06/02 04:58:50;;;;;;;7.85;6.25;;;;;;;7.01;95.74;98995.94;4191374;28;20102;-72
2022/06/02 05:01:28;;;;;;;8.75;6.75;;;;;;;7.12;94.86;98991.59;4188720;28;20055;-72
2022/06/02 05:03:46;;;;;;;7.47;6.07;;;;;;;7.21;93.86;98994.25;4194024;27;20097;-73
2022/06/02 05:06:20;;;;;;;9.98;6.50;;;;;;;7.33;94.46;98999.75;4187619;28;20196;-72
2022/06/02 05:08:43;;;;;;;9.23;6.60;;;;;;;7.46;95.77;98993.09;4188298;27;20142;-72
2022/06/02 05:10:53;;;;;;;10.00;6.22;;;;;;;7.57;94.49;98991.47;4184804;28;20041;-72
2022/06/02 05:13:06;;;;;;;8.98;6.75;;;;;;;7.67;95.37;98992.16;4190838;27;20044;-72
2022/06/02 05:15:22;;;;;;;;;;;;;;;7.77;95.20;98995.22;4189871;28;20048;-72
2022/06/02 05:17:57;;;;;;;14.60;7.40;;;;;;;7.91;96.26;98991.31;4186550;28;19920;-72
2022/06/02 05:20:21;;;;;;;10.18;6.28;;;;;;;8.04;95.31;98995.66;4186204;28;20056;-72
2022/06/02 05:22:40;;;;;;;11.00;6.97;;;;;;;8.16;95.06;98992.84;4186711;28;20489;-72
2022/06/02 05:24:58;;;;;;;9.32;6.60;;;;;;;8.30;94.71;98997.97;4188069;28;20044;-72
2022/06/02 05:27:11;;;;;;;10.75;7.47;;;;;;;8.39;94.07;98990.41;4187150;28;20101;-72
2022/06/02 05:29:30;;;;;;;8.68;6.03;;;;;;;8.50;93.28;98985.97;4185893;28;20036;-72
2022/06/02 05:31:48;;;;;;;9.60;6.82;;;;;;;8.62;92.63;98994.19;4187938;28;20075;-72
2022/06/02 05:34:18;;;;;;;10.15;6.97;;;;;;;8.79;91.95;99008.84;4201505;27;20135;-72
2022/06/02 05:36:46;;;;;;;10.98;7.68;;;;;;;8.97;95.55;99010.09;4201191;27;20063;-72
2022/06/02 05:39:02;;;;;;;8.88;6.47;;;;;;;9.11;94.70;99017.97;4201192;27;20651;-72
2022/06/02 05:41:41;;;;;;;9.63;6.88;;;;;;;9.22;91.62;99011.53;4201169;27;20055;-72
2022/06/02 05:43:55;;;;;;;7.72;5.88;;;;;;;9.32;89.77;99017.69;4202736;27;20055;-72
2022/06/02 05:46:17;;;;;;;7.53;6.32;;;;;;;9.43;91.07;99014.03;4198506;27;20516;-72
2022/06/02 05:48:39;;;;;;;9.27;7.10;;;;;;;9.56;91.83;99011.97;4187152;28;20614;-72
2022/06/02 05:51:02;;;;;;;11.30;7.80;;;;;;;9.69;92.54;99019.00;4187195;28;20044;-72
2022/06/02 05:53:24;;;;;;;9.85;7.57;;;;;;;9.83;90.71;99012.97;4186902;28;20382;-72
2022/06/02 05:55:52;;;;;;;8.40;6.88;;;;;;;9.94;85.74;99016.00;4187395;28;20053;-72
2022/06/02 05:58:13;;;;;;;11.55;8.00;;;;;;;10.09;86.91;99035.31;4187089;28;20036;-72
2022/06/02 06:00:27;;;;;;;8.98;7.68;;;;;;;10.12;85.88;99029.06;4201307;27;20056;-72
2022/06/02 06:03:17;;;;;;;8.82;7.38;;;;;;;10.27;84.89;99032.97;4202123;27;20454;-72
2022/06/02 06:05:35;;;;;;;9.82;7.63;;;;;;;10.41;84.51;99038.00;4201776;27;20049;-72
2022/06/02 06:08:08;;;;;;;10.15;7.97;;;;;;;10.50;83.60;99035.00;4202136;27;20051;-72
2022/06/02 06:10:26;;;;;;;9.23;7.40;;;;;;;10.55;83.63;99035.53;4188557;27;20346;-73
2022/06/02 06:12:59;;;;;;;9.90;7.82;;;;;;;10.52;82.74;99035.47;4188666;28;20485;-72
2022/06/02 06:15:15;;;;;;;9.52;7.00;;;;;;;10.62;80.95;99037.63;4187170;28;20044;-72
2022/06/02 06:17:27;;;;;;;10.15;7.55;;;;;;;10.71;82.36;99046.50;4186798;28;20136;-72
2022/06/02 06:20:02;;;;;;;10.30;6.95;;;;;;;10.75;80.35;99038.28;4186409;28;20143;-72
2022/06/02 06:22:50;;;;;;;8.27;6.10;;;;;;;10.88;78.79;99048.03;4198727;27;20051;-73
2022/06/02 06:25:07;;;;;;;8.77;6.97;;;;;;;10.88;78.45;99050.81;4185526;28;20262;-72
2022/06/02 06:27:16;;;;;;;8.15;6.55;;;;;;;10.85;78.67;99044.03;4185599;28;20051;-72
2022/06/02 06:29:27;;;;;;;10.07;7.07;;;;;;;10.83;79.89;99051.88;4201455;27;20479;-72
2022/06/02 06:31:36;;;;;;;10.82;6.25;;;;;;;10.77;77.18;99044.25;4189165;28;20043;-72
2022/06/02 06:33:57;;;;;;;8.60;6.13;;;;;;;10.88;78.15;99045.25;4188695;28;20133;-72
2022/06/02 06:36:15;;;;;;;9.13;6.55;;;;;;;11.00;78.54;99045.09;4197772;27;20044;-72
2022/06/02 06:38:47;;;;;;;8.88;6.05;;;;;;;11.09;79.02;99047.63;4186846;28;20049;-73
2022/06/02 06:41:08;;;;;;;9.93;6.70;;;;;;;11.26;78.11;99047.16;4186413;28;20548;-72
2022/06/02 06:43:40;;;;;;;6.95;5.82;;;;;;;11.22;76.71;99049.84;4186630;28;20048;-72
2022/06/02 06:46:02;;;;;;;7.60;6.00;;;;;;;11.28;76.84;99046.78;4186753;28;20303;-72
2022/06/02 06:48:14;;;;;;;5.97;5.30;;;;;;;11.38;77.04;99048.94;4185944;28;20044;-70
2022/06/02 06:50:23;;;;;;;6.95;5.18;;;;;;;11.31;76.10;99051.59;4185380;28;20388;-72
2022/06/02 06:52:55;;;;;;;7.88;6.07;;;;;;;11.22;76.64;99054.59;4200834;27;20051;-72
2022/06/02 06:55:20;;;;;;;7.65;6.10;;;;;;;11.35;77.70;99056.03;4199881;27;20040;-72
2022/06/02 06:57:31;;;;;;;8.13;6.00;;;;;;;11.51;78.47;99055.91;4201129;27;20475;-72
2022/06/02 06:59:58;;;;;;;8.13;6.80;;;;;;;11.62;76.60;99058.84;4200845;28;20044;-72
2022/06/02 07:02:35;;;;;;;10.55;7.40;;;;;;;11.68;77.57;99054.59;4186225;28;20581;-72
2022/06/02 07:05:01;;;;;;;7.50;6.13;;;;;;;11.67;74.40;99067.66;4185729;28;20093;-72
2022/06/02 07:07:27;;;;;;;8.02;6.20;;;;;;;11.73;75.23;99074.47;4192077;28;20188;-72
2022/06/02 07:09:55;;;;;;;9.10;6.57;;;;;;;11.72;74.17;99072.88;4196233;28;20086;-72
2022/06/02 07:14:27;;;;;;;6.45;5.20;;;;;;;11.90;73.50;99066.84;4186488;28;20535;-72
2022/06/02 07:16:34;;;;;;;8.20;5.80;;;;;;;11.87;73.10;99065.63;4200733;27;20036;-72
2022/06/02 07:19:38;;;;;;;6.05;5.15;;;;;;;11.80;71.83;99063.53;4201343;27;20055;-72
2022/06/02 07:22:02;;;;;;;7.75;5.30;;;;;;;11.96;72.68;99079.22;4152935;28;20329;-72
2022/06/02 07:24:17;;;;;;;6.38;4.90;;;;;;;12.09;72.07;99072.31;4152261;28;20191;-72
2022/06/02 07:26:34;;;;;;;6.60;4.82;;;;;;;12.11;71.48;99074.69;4173219;27;20076;-72
2022/06/02 07:28:50;;;;;;;7.97;5.82;;;;;;;12.02;70.46;99063.88;4200124;27;20518;-72
2022/06/02 07:31:12;;;;;;;6.93;5.60;;;;;;;12.15;72.11;99073.56;4201415;27;20228;-72
2022/06/02 07:33:50;;;;;;;7.55;5.60;;;;;;;12.27;72.48;99076.13;4191084;28;20130;-72
2022/06/02 07:36:11;;;;;;;7.45;5.90;;;;;;;12.24;71.68;99078.84;4199662;28;20047;-72
2022/06/02 07:38:32;;;;;;;6.63;5.50;;;;;;;12.30;70.30;99083.69;4191478;27;20060;-72
2022/06/02 07:40:33;;;;;;;6.65;5.88;;;;;;;12.27;71.13;99076.13;4200487;27;20055;-72
2022/06/02 07:42:57;;;;;;;9.23;5.45;;;;;;;12.36;71.43;99071.09;4200866;28;20338;-72
2022/06/02 07:45:03;;;;;;;7.15;6.00;;;;;;;12.43;71.96;99089.03;4185882;28;20068;-72
2022/06/02 07:47:24;;;;;;;7.10;6.20;;;;;;;12.56;71.95;99082.06;4185818;28;20052;-72
2022/06/02 07:49:39;;;;;;;7.63;5.88;;;;;;;12.55;70.91;99080.47;4185746;28;20357;-72
2022/06/02 07:51:45;;;;;;;7.85;5.80;;;;;;;12.68;72.49;99075.47;4186046;28;20051;-72
2022/06/02 07:54:19;;;;;;;7.43;5.72;;;;;;;12.88;73.61;99094.38;4185318;28;20295;-72
2022/06/02 07:56:39;;;;;;;;;;;;;;;12.92;69.87;99097.19;4186679;28;20052;-72
2022/06/02 07:59:04;;;;;;;5.57;4.85;;;;;;;12.71;68.47;99088.59;4185200;28;19920;-72
2022/06/02 08:01:23;;;;;;;8.43;5.53;;;;;;;12.67;69.00;99091.34;4186204;28;20032;-72
2022/06/02 08:03:48;;;;;;;6.35;5.47;;;;;;;12.79;69.18;99090.28;4185405;28;20059;-72
2022/06/02 08:06:06;;;;;;;7.43;5.85;;;;;;;12.85;70.17;99083.22;4185908;28;20101;-73
2022/06/02 08:08:34;;;;;;;7.25;5.80;;;;;;;12.98;71.28;99083.75;4185300;28;20059;-73
2022/06/02 08:11:08;;;;;;;6.13;5.13;;;;;;;13.05;69.57;99081.88;4186310;28;20536;-73
2022/06/02 08:13:20;;;;;;;7.22;5.50;;;;;;;13.16;68.38;99080.03;4185833;28;20052;-72
2022/06/02 08:15:44;;;;;;;5.45;4.85;;;;;;;13.09;67.95;99091.06;4188327;28;20048;-72
2022/06/02 08:17:56;;;;;;;4.57;4.05;;;;;;;12.99;67.95;99090.91;4189091;28;20048;-72
2022/06/02 08:20:02;;;;;;;5.03;4.37;;;;;;;13.01;66.59;99094.13;4188323;28;20055;-72
2022/06/02 08:22:08;;;;;;;5.90;4.70;;;;;;;12.90;66.88;99096.75;4197429;27;20362;-73
2022/06/02 08:24:36;;;;;;;5.25;4.18;;;;;;;12.99;66.42;99097.28;4204370;27;20530;-73
2022/06/02 08:26:45;;;;;;;7.35;4.82;;;;;;;13.08;68.27;99092.22;4195386;27;20416;-72
2022/06/02 08:28:54;;;;;;;5.65;4.68;;;;;;;13.31;67.72;99088.50;4188216;28;20267;-73
2022/06/02 08:31:11;;;;;;;6.00;4.15;;;;;;;13.43;65.85;99097.38;4190383;28;20044;-73
2022/06/02 08:33:32;;;;;;;4.95;4.45;;;;;;;13.11;65.91;99090.66;4193433;28;20131;-73
2022/06/02 08:35:50;;;;;;;4.45;4.05;;;;;;;13.21;67.06;99084.44;4188809;28;20792;-73
2022/06/02 08:38:10;;;;;;;5.22;4.13;;;;;;;13.09;66.63;99093.03;4188436;28;20435;-73
2022/06/02 08:40:32;;;;;;;5.88;3.72;;;;;;;13.23;65.91;99089.63;4188143;28;20423;-73
2022/06/02 08:42:56;;;;;;;4.05;3.65;;;;;;;13.10;64.97;99089.88;4188294;28;20280;-73
2022/06/02 08:45:37;;;;;;;5.47;3.95;;;;;;;13.40;65.52;99084.25;4187806;28;20147;-72
2022/06/02 08:48:13;;;;;;;4.18;3.47;;;;;;;13.33;66.71;99081.41;4186436;28;20056;-73
2022/06/02 08:50:40;;;;;;;4.28;3.60;;;;;;;13.58;64.65;99076.09;4187004;28;20445;-73
2022/06/02 08:53:10;;;;;;;3.92;3.50;;;;;;;13.71;62.58;99085.72;4188145;28;20399;-72
2022/06/02 08:55:19;;;;;;;4.95;4.05;;;;;;;13.77;62.44;99075.06;4188375;28;20087;-72
2022/06/02 08:57:59;;;;;;;5.22;3.55;;;;;;;13.83;64.08;99076.31;4188040;28;20052;-73
2022/06/02 09:00:20;;;;;;;3.55;3.13;;;;;;;14.10;62.39;99087.22;4198339;28;20036;-73
2022/06/02 09:02:58;;;;;;;3.78;3.35;;;;;;;13.75;60.74;99085.78;4191446;28;20098;-73
2022/06/02 09:04:59;;;;;;;4.63;3.78;;;;;;;13.96;61.24;99080.34;4197051;27;20055;-73
2022/06/02 09:07:34;;;;;;;4.03;3.60;;;;;;;13.85;62.30;99078.69;4194734;28;20049;-73
2022/06/02 09:10:02;;;;;;;4.03;3.42;;;;;;;14.02;61.81;99073.25;4187122;28;20270;-73
2022/06/02 09:12:05;;;;;;;4.90;2.90;;;;;;;14.09;62.11;99078.06;4188008;28;20053;-73
2022/06/02 09:14:14;;;;;;;3.80;3.08;;;;;;;14.13;61.32;99073.31;4188326;28;20365;-73
2022/06/02 09:16:49;;;;;;;3.95;3.20;;;;;;;14.06;60.05;99076.84;4187260;28;20035;-73
2022/06/02 09:18:58;;;;;;;4.68;3.40;;;;;;;13.97;58.06;99087.50;4187234;28;20048;-73
2022/06/02 09:21:13;;;;;;;5.60;3.17;;;;;;;13.97;60.18;99078.38;4187653;28;20080;-73
2022/06/02 09:23:51;;;;;;;5.65;2.88;;;;;;;13.95;60.88;99089.09;4201258;27;20040;-73
2022/06/02 09:25:54;;;;;;;4.65;2.92;;;;;;;14.23;61.25;99092.09;4186499;28;20051;-73
2022/06/02 09:28:25;;;;;;;5.70;3.15;;;;;;;14.33;58.18;99087.78;4187632;28;20119;-73
2022/06/02 09:31:00;;;;;;;5.60;2.85;;;;;;;14.48;60.22;99089.50;4187287;28;20431;-73
2022/06/02 09:33:34;;;;;;;3.45;2.97;;;;;;;14.55;58.02;99095.06;4187920;28;20036;-73
2022/06/02 09:35:44;;;;;;;4.30;2.97;;;;;;;14.61;59.52;99081.59;4187507;28;20104;-73
2022/06/02 09:38:09;;;;;;;2.83;2.53;;;;;;;14.73;58.26;99086.00;4186705;28;20427;-73
2022/06/02 09:40:29;;;;;;;3.67;3.05;;;;;;;14.77;58.17;99097.97;4188049;27;20489;-73
2022/06/02 09:42:39;;;;;;;3.95;2.80;;;;;;;14.75;56.58;99097.59;4202933;27;20527;-73
2022/06/02 09:45:00;;;;;;;3.08;2.70;;;;;;;14.83;56.50;99102.78;4196182;28;20296;-73
2022/06/02 09:47:26;;;;;;;4.40;2.83;;;;;;;15.06;56.41;99098.88;4187347;28;20360;-73
2022/06/02 09:49:50;;;;;;;4.50;2.70;;;;;;;14.95;55.78;99101.63;4186480;28;20072;-73
2022/06/02 09:52:02;;;;;;;4.07;2.75;;;;;;;15.07;54.80;99106.88;4187533;28;20279;-73
2022/06/02 09:54:31;;;;;;;4.13;2.43;;;;;;;15.12;54.50;99114.81;4187018;28;20079;-73
2022/06/02 09:56:58;;;;;;;3.53;2.65;;;;;;;15.15;55.60;99116.84;4187053;28;20040;-73
2022/06/02 09:59:10;;;;;;;3.67;2.58;;;;;;;15.04;57.53;99113.22;4186512;28;20091;-73
2022/06/02 10:01:23;;;;;;;4.20;2.53;;;;;;;15.28;56.17;99114.47;4187490;28;20055;-73
2022/06/02 10:03:36;;;;;;;2.67;2.38;;;;;;;15.24;55.23;99104.53;4186849;28;20065;-73
2022/06/02 10:06:08;;;;;;;2.58;2.38;;;;;;;15.43;54.45;99112.53;4186994;28;20465;-73
2022/06/02 10:08:24;;;;;;;2.73;2.20;;;;;;;15.39;53.11;99109.75;4186659;28;20321;-73
2022/06/02 10:11:02;;;;;;;3.58;2.20;;;;;;;15.38;52.26;99118.47;4187032;28;20449;-73
2022/06/02 10:13:35;;;;;;;2.50;2.22;;;;;;;15.34;53.45;99117.69;4186882;28;20072;-73
2022/06/02 10:16:03;;;;;;;2.25;2.05;;;;;;;15.34;52.44;99118.50;4185981;28;20469;-73
2022/06/02 10:18:18;;;;;;;2.20;1.90;;;;;;;15.35;51.25;99113.72;4188422;27;20235;-73
2022/06/02 10:20:50;;;;;;;3.05;2.60;;;;;;;15.37;52.65;99111.31;4202113;27;20035;-73
2022/06/02 10:23:16;;;;;;;4.28;1.80;;;;;;;15.48;52.76;99111.38;4201705;27;20032;-73
2022/06/02 10:25:28;;;;;;;2.00;1.80;;;;;;;15.54;51.23;99116.13;4185655;28;20097;-73
2022/06/02 10:27:37;;;;;;;1.83;1.70;;;;;;;15.59;51.48;99112.16;4186867;28;20291;-73
2022/06/02 10:30:25;;;;;;;2.08;1.60;;;;;;;15.77;50.32;99112.22;4185720;28;20048;-73
2022/06/02 10:32:28;;;;;;;4.95;1.67;;;;;;;15.85;50.23;99119.38;4200053;27;20416;-73
2022/06/02 10:35:07;;;;;;;2.40;1.85;;;;;;;15.92;48.48;99114.63;4196731;28;20048;-73
2022/06/02 10:37:25;;;;;;;1.98;1.50;;;;;;;15.77;48.94;99118.59;4184088;28;20037;-73
2022/06/02 10:39:53;;;;;;;3.03;1.60;;;;;;;15.99;50.79;99111.03;4185470;28;20051;-73
2022/06/02 10:42:29;;;;;;;2.60;1.70;;;;;;;15.96;48.93;99122.97;4197142;28;20105;-73
2022/06/02 10:44:48;;;;;;;1.80;1.60;;;;;;;15.87;49.23;99112.22;4190873;28;20040;-73
2022/06/02 10:47:13;;;;;;;1.63;1.52;;;;;;;16.05;50.19;99106.63;4186189;28;20033;-73
2022/06/02 10:49:16;;;;;;;3.17;1.65;;;;;;;16.24;48.53;99113.81;4193964;28;20248;-73
2022/06/02 10:51:51;;;;;;;1.70;1.60;;;;;;;16.35;48.38;99102.63;4202149;27;20261;-73
2022/06/02 10:54:10;;;;;;;3.65;1.92;;;;;;;16.43;48.71;99093.03;4200706;28;20147;-73
2022/06/02 10:56:41;;;;;;;2.35;1.50;;;;;;;16.51;47.44;99100.97;4201373;27;20055;-73
2022/06/02 10:58:50;;;;;;;1.80;1.45;;;;;;;16.43;48.46;99107.00;4191388;27;20047;-73
2022/06/02 11:01:15;;;;;;;1.85;1.60;;;;;;;16.50;47.94;99104.97;4201000;27;20038;-73
2022/06/02 11:03:49;;;;;;;2.00;1.80;;;;;;;16.58;47.91;99100.16;4198901;28;20056;-73
2022/06/02 11:06:05;;;;;;;2.88;1.42;;;;;;;16.48;47.36;99106.59;4186510;28;20048;-73
2022/06/02 11:08:14;;;;;;;1.63;1.42;;;;;;;16.67;46.88;99094.94;4186109;28;20904;-74
2022/06/02 11:10:28;;;;;;;2.08;1.40;;;;;;;16.88;50.30;99096.09;4186243;28;20029;-74